sensor_id;sensor_type;location;lat;lon;timestamp;P1;durP1;ratioP1;P2;durP2;ratioP2
75930;SDS011;64609;47.052;15.462;2024-02-14T00:02:23;12.27;;;7.75;;
75930;SDS011;64609;47.052;15.462;2024-02-14T00:04:51;15.43;;;9.07;;
75930;SDS011;64609;47.052;15.462;2024-02-14T00:07:18;17.35;;;9.00;;
75930;SDS011;64609;47.052;15.462;2024-02-14T00:09:44;15.80;;;8.77;;
75930;SDS011;64609;47.052;15.462;2024-02-14T00:12:09;15.18;;;8.82;;
75930;SDS011;64609;47.052;15.462;2024-02-14T00:14:36;14.70;;;8.85;;
75930;SDS011;64609;47.052;15.462;2024-02-14T00:17:02;15.20;;;8.32;;
75930;SDS011;64609;47.052;15.462;2024-02-14T00:19:29;18.48;;;9.05;;
75930;SDS011;64609;47.052;15.462;2024-02-14T00:21:54;16.00;;;8.77;;
75930;SDS011;64609;47.052;15.462;2024-02-14T00:24:20;15.45;;;8.73;;
75930;SDS011;64609;47.052;15.462;2024-02-14T00:26:45;18.42;;;8.68;;
75930;SDS011;64609;47.052;15.462;2024-02-14T00:29:11;16.90;;;8.65;;
75930;SDS011;64609;47.052;15.462;2024-02-14T00:31:37;15.05;;;8.02;;
75930;SDS011;64609;47.052;15.462;2024-02-14T00:34:02;13.63;;;8.38;;
75930;SDS011;64609;47.052;15.462;2024-02-14T00:36:29;16.15;;;8.60;;
75930;SDS011;64609;47.052;15.462;2024-02-14T00:38:55;13.63;;;7.20;;
75930;SDS011;64609;47.052;15.462;2024-02-14T00:41:21;11.77;;;7.32;;
75930;SDS011;64609;47.052;15.462;2024-02-14T00:43:46;12.90;;;7.63;;
75930;SDS011;64609;47.052;15.462;2024-02-14T00:46:15;15.65;;;8.65;;
75930;SDS011;64609;47.052;15.462;2024-02-14T00:48:42;12.55;;;8.30;;
75930;SDS011;64609;47.052;15.462;2024-02-14T00:51:09;13.73;;;7.93;;
75930;SDS011;64609;47.052;15.462;2024-02-14T00:53:35;15.20;;;7.68;;
75930;SDS011;64609;47.052;15.462;2024-02-14T00:56:00;12.25;;;7.68;;
75930;SDS011;64609;47.052;15.462;2024-02-14T00:58:26;13.23;;;8.00;;
75930;SDS011;64609;47.052;15.462;2024-02-14T01:00:52;12.00;;;7.75;;
75930;SDS011;64609;47.052;15.462;2024-02-14T01:03:17;15.13;;;7.50;;
75930;SDS011;64609;47.052;15.462;2024-02-14T01:05:43;14.38;;;8.13;;
75930;SDS011;64609;47.052;15.462;2024-02-14T01:08:09;13.73;;;8.13;;
75930;SDS011;64609;47.052;15.462;2024-02-14T01:10:34;13.10;;;8.32;;
75930;SDS011;64609;47.052;15.462;2024-02-14T01:13:00;11.40;;;7.38;;
75930;SDS011;64609;47.052;15.462;2024-02-14T01:15:26;13.20;;;7.55;;
75930;SDS011;64609;47.052;15.462;2024-02-14T01:17:51;14.13;;;7.68;;
75930;SDS011;64609;47.052;15.462;2024-02-14T01:20:17;11.68;;;7.15;;
75930;SDS011;64609;47.052;15.462;2024-02-14T01:22:43;14.02;;;7.82;;
75930;SDS011;64609;47.052;15.462;2024-02-14T01:25:11;13.27;;;8.00;;
75930;SDS011;64609;47.052;15.462;2024-02-14T01:27:37;12.32;;;7.10;;
75930;SDS011;64609;47.052;15.462;2024-02-14T01:30:02;14.38;;;7.68;;
75930;SDS011;64609;47.052;15.462;2024-02-14T01:32:30;15.20;;;8.68;;
75930;SDS011;64609;47.052;15.462;2024-02-14T01:34:56;12.98;;;7.85;;
75930;SDS011;64609;47.052;15.462;2024-02-14T01:37:22;12.18;;;7.63;;
75930;SDS011;64609;47.052;15.462;2024-02-14T01:39:47;12.15;;;7.30;;
75930;SDS011;64609;47.052;15.462;2024-02-14T01:42:13;17.05;;;8.25;;
75930;SDS011;64609;47.052;15.462;2024-02-14T01:44:39;14.13;;;7.68;;
75930;SDS011;64609;47.052;15.462;2024-02-14T01:47:05;12.82;;;7.47;;
75930;SDS011;64609;47.052;15.462;2024-02-14T01:49:31;12.30;;;7.15;;
75930;SDS011;64609;47.052;15.462;2024-02-14T01:51:59;13.30;;;7.70;;
75930;SDS011;64609;47.052;15.462;2024-02-14T01:54:28;9.90;;;6.80;;
75930;SDS011;64609;47.052;15.462;2024-02-14T01:56:55;12.98;;;7.00;;
75930;SDS011;64609;47.052;15.462;2024-02-14T01:59:22;12.23;;;6.97;;
75930;SDS011;64609;47.052;15.462;2024-02-14T02:01:49;11.23;;;7.85;;
75930;SDS011;64609;47.052;15.462;2024-02-14T02:04:16;10.50;;;7.07;;
75930;SDS011;64609;47.052;15.462;2024-02-14T02:06:46;11.32;;;7.15;;
75930;SDS011;64609;47.052;15.462;2024-02-14T02:09:12;13.73;;;7.45;;
75930;SDS011;64609;47.052;15.462;2024-02-14T02:11:48;11.88;;;7.30;;
75930;SDS011;64609;47.052;15.462;2024-02-14T02:14:14;13.75;;;7.82;;
75930;SDS011;64609;47.052;15.462;2024-02-14T02:16:41;15.48;;;8.07;;
75930;SDS011;64609;47.052;15.462;2024-02-14T02:19:07;11.50;;;7.47;;
75930;SDS011;64609;47.052;15.462;2024-02-14T02:21:34;13.27;;;7.72;;
75930;SDS011;64609;47.052;15.462;2024-02-14T02:24:03;13.35;;;7.45;;
75930;SDS011;64609;47.052;15.462;2024-02-14T02:26:30;12.93;;;8.07;;
75930;SDS011;64609;47.052;15.462;2024-02-14T02:28:55;14.80;;;8.35;;
75930;SDS011;64609;47.052;15.462;2024-02-14T02:31:21;12.82;;;7.82;;
75930;SDS011;64609;47.052;15.462;2024-02-14T02:33:47;11.80;;;7.53;;
75930;SDS011;64609;47.052;15.462;2024-02-14T02:36:12;15.50;;;7.97;;
75930;SDS011;64609;47.052;15.462;2024-02-14T02:38:38;16.20;;;7.70;;
75930;SDS011;64609;47.052;15.462;2024-02-14T02:41:04;12.25;;;7.57;;
75930;SDS011;64609;47.052;15.462;2024-02-14T02:43:32;14.93;;;7.35;;
75930;SDS011;64609;47.052;15.462;2024-02-14T02:45:59;15.65;;;7.97;;
75930;SDS011;64609;47.052;15.462;2024-02-14T02:48:25;14.60;;;7.13;;
75930;SDS011;64609;47.052;15.462;2024-02-14T02:50:50;10.90;;;7.30;;
75930;SDS011;64609;47.052;15.462;2024-02-14T02:53:17;12.82;;;7.28;;
75930;SDS011;64609;47.052;15.462;2024-02-14T02:55:43;9.90;;;7.05;;
75930;SDS011;64609;47.052;15.462;2024-02-14T02:58:08;13.23;;;7.55;;
75930;SDS011;64609;47.052;15.462;2024-02-14T03:00:34;11.23;;;7.60;;
75930;SDS011;64609;47.052;15.462;2024-02-14T03:03:00;13.02;;;6.90;;
75930;SDS011;64609;47.052;15.462;2024-02-14T03:05:29;15.27;;;7.32;;
75930;SDS011;64609;47.052;15.462;2024-02-14T03:07:58;12.20;;;6.75;;
75930;SDS011;64609;47.052;15.462;2024-02-14T03:10:24;11.55;;;7.00;;
75930;SDS011;64609;47.052;15.462;2024-02-14T03:12:50;12.35;;;7.07;;
75930;SDS011;64609;47.052;15.462;2024-02-14T03:15:16;11.98;;;6.22;;
75930;SDS011;64609;47.052;15.462;2024-02-14T03:17:43;10.07;;;6.20;;
75930;SDS011;64609;47.052;15.462;2024-02-14T03:20:09;9.45;;;5.85;;
75930;SDS011;64609;47.052;15.462;2024-02-14T03:22:39;12.70;;;6.55;;
75930;SDS011;64609;47.052;15.462;2024-02-14T03:25:11;10.18;;;5.43;;
75930;SDS011;64609;47.052;15.462;2024-02-14T03:27:41;12.10;;;6.55;;
75930;SDS011;64609;47.052;15.462;2024-02-14T03:30:07;10.38;;;6.00;;
75930;SDS011;64609;47.052;15.462;2024-02-14T03:32:33;7.72;;;5.82;;
75930;SDS011;64609;47.052;15.462;2024-02-14T03:34:59;9.93;;;5.30;;
75930;SDS011;64609;47.052;15.462;2024-02-14T03:37:26;10.25;;;5.70;;
75930;SDS011;64609;47.052;15.462;2024-02-14T03:39:52;8.82;;;5.55;;
75930;SDS011;64609;47.052;15.462;2024-02-14T03:42:17;9.90;;;5.43;;
75930;SDS011;64609;47.052;15.462;2024-02-14T03:44:44;9.85;;;5.30;;
75930;SDS011;64609;47.052;15.462;2024-02-14T03:47:11;9.73;;;6.00;;
75930;SDS011;64609;47.052;15.462;2024-02-14T03:49:38;10.43;;;6.00;;
75930;SDS011;64609;47.052;15.462;2024-02-14T03:52:06;14.10;;;6.30;;
75930;SDS011;64609;47.052;15.462;2024-02-14T03:54:35;8.98;;;5.35;;
75930;SDS011;64609;47.052;15.462;2024-02-14T03:57:02;13.18;;;6.15;;
75930;SDS011;64609;47.052;15.462;2024-02-14T03:59:30;10.85;;;6.03;;
75930;SDS011;64609;47.052;15.462;2024-02-14T04:01:55;9.35;;;5.90;;
75930;SDS011;64609;47.052;15.462;2024-02-14T04:04:23;13.73;;;6.15;;
75930;SDS011;64609;47.052;15.462;2024-02-14T04:06:48;9.55;;;5.15;;
75930;SDS011;64609;47.052;15.462;2024-02-14T04:09:14;11.30;;;6.00;;
75930;SDS011;64609;47.052;15.462;2024-02-14T04:11:39;11.05;;;5.68;;
75930;SDS011;64609;47.052;15.462;2024-02-14T04:14:05;9.85;;;5.40;;
75930;SDS011;64609;47.052;15.462;2024-02-14T04:16:31;8.98;;;5.70;;
75930;SDS011;64609;47.052;15.462;2024-02-14T04:18:58;9.60;;;5.47;;
75930;SDS011;64609;47.052;15.462;2024-02-14T04:21:24;9.60;;;5.50;;
75930;SDS011;64609;47.052;15.462;2024-02-14T04:23:50;9.90;;;5.25;;
75930;SDS011;64609;47.052;15.462;2024-02-14T04:26:19;7.80;;;4.97;;
75930;SDS011;64609;47.052;15.462;2024-02-14T04:28:45;8.53;;;5.50;;
75930;SDS011;64609;47.052;15.462;2024-02-14T04:31:11;8.38;;;5.32;;
75930;SDS011;64609;47.052;15.462;2024-02-14T04:33:36;9.15;;;5.10;;
75930;SDS011;64609;47.052;15.462;2024-02-14T04:36:02;7.35;;;5.15;;
75930;SDS011;64609;47.052;15.462;2024-02-14T04:38:28;9.02;;;5.30;;
75930;SDS011;64609;47.052;15.462;2024-02-14T04:40:54;11.02;;;5.80;;
75930;SDS011;64609;47.052;15.462;2024-02-14T04:43:21;8.25;;;4.90;;
75930;SDS011;64609;47.052;15.462;2024-02-14T04:45:47;9.45;;;5.13;;
75930;SDS011;64609;47.052;15.462;2024-02-14T04:48:13;10.43;;;5.55;;
75930;SDS011;64609;47.052;15.462;2024-02-14T04:50:38;8.73;;;5.65;;
75930;SDS011;64609;47.052;15.462;2024-02-14T04:53:04;7.88;;;5.30;;
75930;SDS011;64609;47.052;15.462;2024-02-14T04:55:30;9.43;;;5.47;;
75930;SDS011;64609;47.052;15.462;2024-02-14T04:57:55;9.73;;;5.20;;
75930;SDS011;64609;47.052;15.462;2024-02-14T05:00:21;12.75;;;5.88;;
75930;SDS011;64609;47.052;15.462;2024-02-14T05:02:47;7.93;;;4.95;;
75930;SDS011;64609;47.052;15.462;2024-02-14T05:05:12;10.02;;;5.03;;
75930;SDS011;64609;47.052;15.462;2024-02-14T05:07:38;8.55;;;5.45;;
75930;SDS011;64609;47.052;15.462;2024-02-14T05:10:04;10.95;;;5.50;;
75930;SDS011;64609;47.052;15.462;2024-02-14T05:12:31;9.43;;;5.15;;
75930;SDS011;64609;47.052;15.462;2024-02-14T05:14:57;10.93;;;5.32;;
75930;SDS011;64609;47.052;15.462;2024-02-14T05:17:22;8.40;;;5.18;;
75930;SDS011;64609;47.052;15.462;2024-02-14T05:19:48;9.05;;;5.25;;
75930;SDS011;64609;47.052;15.462;2024-02-14T05:22:14;8.02;;;5.30;;
75930;SDS011;64609;47.052;15.462;2024-02-14T05:24:39;10.25;;;5.22;;
75930;SDS011;64609;47.052;15.462;2024-02-14T05:27:05;10.32;;;5.18;;
75930;SDS011;64609;47.052;15.462;2024-02-14T05:29:30;12.80;;;4.97;;
75930;SDS011;64609;47.052;15.462;2024-02-14T05:31:56;9.68;;;5.28;;
75930;SDS011;64609;47.052;15.462;2024-02-14T05:34:22;7.90;;;4.80;;
75930;SDS011;64609;47.052;15.462;2024-02-14T05:36:48;7.50;;;4.55;;
75930;SDS011;64609;47.052;15.462;2024-02-14T05:39:14;10.38;;;5.15;;
75930;SDS011;64609;47.052;15.462;2024-02-14T05:41:40;13.27;;;5.40;;
75930;SDS011;64609;47.052;15.462;2024-02-14T05:44:06;8.93;;;4.13;;
75930;SDS011;64609;47.052;15.462;2024-02-14T05:46:32;9.18;;;4.50;;
75930;SDS011;64609;47.052;15.462;2024-02-14T05:48:57;8.20;;;4.40;;
75930;SDS011;64609;47.052;15.462;2024-02-14T05:51:23;8.85;;;4.45;;
75930;SDS011;64609;47.052;15.462;2024-02-14T05:53:49;8.15;;;4.57;;
75930;SDS011;64609;47.052;15.462;2024-02-14T05:56:15;10.82;;;4.72;;
75930;SDS011;64609;47.052;15.462;2024-02-14T05:58:40;9.77;;;4.35;;
75930;SDS011;64609;47.052;15.462;2024-02-14T06:01:06;12.65;;;4.97;;
75930;SDS011;64609;47.052;15.462;2024-02-14T06:03:32;8.68;;;4.32;;
75930;SDS011;64609;47.052;15.462;2024-02-14T06:05:58;9.38;;;4.75;;
75930;SDS011;64609;47.052;15.462;2024-02-14T06:08:23;9.32;;;4.50;;
75930;SDS011;64609;47.052;15.462;2024-02-14T06:10:49;8.02;;;4.00;;
75930;SDS011;64609;47.052;15.462;2024-02-14T06:13:15;7.18;;;4.28;;
75930;SDS011;64609;47.052;15.462;2024-02-14T06:15:40;13.00;;;5.22;;
75930;SDS011;64609;47.052;15.462;2024-02-14T06:18:06;9.30;;;4.55;;
75930;SDS011;64609;47.052;15.462;2024-02-14T06:20:32;14.02;;;5.10;;
75930;SDS011;64609;47.052;15.462;2024-02-14T06:22:57;17.10;;;5.40;;
75930;SDS011;64609;47.052;15.462;2024-02-14T06:25:23;9.82;;;5.32;;
75930;SDS011;64609;47.052;15.462;2024-02-14T06:27:48;8.88;;;4.57;;
75930;SDS011;64609;47.052;15.462;2024-02-14T06:30:14;10.07;;;5.85;;
75930;SDS011;64609;47.052;15.462;2024-02-14T06:32:41;15.95;;;5.97;;
75930;SDS011;64609;47.052;15.462;2024-02-14T06:35:07;12.48;;;5.88;;
75930;SDS011;64609;47.052;15.462;2024-02-14T06:37:33;14.35;;;6.47;;
75930;SDS011;64609;47.052;15.462;2024-02-14T06:39:59;13.75;;;6.82;;
75930;SDS011;64609;47.052;15.462;2024-02-14T06:42:24;15.10;;;6.60;;
75930;SDS011;64609;47.052;15.462;2024-02-14T06:44:50;18.75;;;6.97;;
75930;SDS011;64609;47.052;15.462;2024-02-14T06:47:15;16.35;;;7.07;;
75930;SDS011;64609;47.052;15.462;2024-02-14T06:49:41;11.63;;;6.65;;
75930;SDS011;64609;47.052;15.462;2024-02-14T06:52:07;21.08;;;7.30;;
75930;SDS011;64609;47.052;15.462;2024-02-14T06:54:32;28.08;;;9.07;;
75930;SDS011;64609;47.052;15.462;2024-02-14T06:56:58;27.98;;;8.63;;
75930;SDS011;64609;47.052;15.462;2024-02-14T06:59:25;23.27;;;8.05;;
75930;SDS011;64609;47.052;15.462;2024-02-14T07:01:51;15.98;;;8.65;;
75930;SDS011;64609;47.052;15.462;2024-02-14T07:04:19;20.45;;;9.05;;
75930;SDS011;64609;47.052;15.462;2024-02-14T07:06:50;28.45;;;9.20;;
75930;SDS011;64609;47.052;15.462;2024-02-14T07:09:17;24.27;;;9.07;;
75930;SDS011;64609;47.052;15.462;2024-02-14T07:11:42;16.50;;;7.57;;
75930;SDS011;64609;47.052;15.462;2024-02-14T07:14:08;15.90;;;8.00;;
75930;SDS011;64609;47.052;15.462;2024-02-14T07:16:33;21.80;;;8.02;;
75930;SDS011;64609;47.052;15.462;2024-02-14T07:18:59;19.27;;;7.97;;
75930;SDS011;64609;47.052;15.462;2024-02-14T07:21:25;13.63;;;7.35;;
75930;SDS011;64609;47.052;15.462;2024-02-14T07:23:50;18.58;;;6.88;;
75930;SDS011;64609;47.052;15.462;2024-02-14T07:26:16;15.75;;;8.32;;
75930;SDS011;64609;47.052;15.462;2024-02-14T07:28:42;23.40;;;8.30;;
75930;SDS011;64609;47.052;15.462;2024-02-14T07:31:08;17.50;;;7.45;;
75930;SDS011;64609;47.052;15.462;2024-02-14T07:33:33;26.63;;;9.23;;
75930;SDS011;64609;47.052;15.462;2024-02-14T07:35:59;21.02;;;9.60;;
75930;SDS011;64609;47.052;15.462;2024-02-14T07:38:25;20.80;;;8.55;;
75930;SDS011;64609;47.052;15.462;2024-02-14T07:40:50;14.82;;;8.25;;
75930;SDS011;64609;47.052;15.462;2024-02-14T07:43:17;23.63;;;9.15;;
75930;SDS011;64609;47.052;15.462;2024-02-14T07:45:42;21.73;;;9.15;;
75930;SDS011;64609;47.052;15.462;2024-02-14T07:48:08;23.27;;;9.98;;
75930;SDS011;64609;47.052;15.462;2024-02-14T07:50:33;28.33;;;9.93;;
75930;SDS011;64609;47.052;15.462;2024-02-14T07:52:59;23.58;;;10.30;;
75930;SDS011;64609;47.052;15.462;2024-02-14T07:55:25;21.77;;;8.65;;
75930;SDS011;64609;47.052;15.462;2024-02-14T07:57:50;18.02;;;8.48;;
75930;SDS011;64609;47.052;15.462;2024-02-14T08:00:17;24.50;;;13.65;;
75930;SDS011;64609;47.052;15.462;2024-02-14T08:02:47;14.85;;;7.78;;
75930;SDS011;64609;47.052;15.462;2024-02-14T08:05:13;26.83;;;10.30;;
75930;SDS011;64609;47.052;15.462;2024-02-14T08:07:39;23.13;;;8.05;;
75930;SDS011;64609;47.052;15.462;2024-02-14T08:10:05;22.48;;;8.05;;
75930;SDS011;64609;47.052;15.462;2024-02-14T08:12:31;16.58;;;7.68;;
75930;SDS011;64609;47.052;15.462;2024-02-14T08:14:56;16.20;;;8.40;;
75930;SDS011;64609;47.052;15.462;2024-02-14T08:17:22;17.42;;;7.95;;
75930;SDS011;64609;47.052;15.462;2024-02-14T08:19:48;26.60;;;7.75;;
75930;SDS011;64609;47.052;15.462;2024-02-14T08:22:13;20.08;;;7.25;;
75930;SDS011;64609;47.052;15.462;2024-02-14T08:24:39;33.13;;;8.18;;
75930;SDS011;64609;47.052;15.462;2024-02-14T08:27:06;18.40;;;8.07;;
75930;SDS011;64609;47.052;15.462;2024-02-14T08:29:32;21.00;;;7.97;;
75930;SDS011;64609;47.052;15.462;2024-02-14T08:31:57;17.30;;;7.55;;
75930;SDS011;64609;47.052;15.462;2024-02-14T08:34:23;20.33;;;7.25;;
75930;SDS011;64609;47.052;15.462;2024-02-14T08:36:49;15.57;;;6.68;;
75930;SDS011;64609;47.052;15.462;2024-02-14T08:39:15;17.88;;;7.65;;
75930;SDS011;64609;47.052;15.462;2024-02-14T08:41:43;16.13;;;6.78;;
75930;SDS011;64609;47.052;15.462;2024-02-14T08:44:10;22.88;;;6.45;;
75930;SDS011;64609;47.052;15.462;2024-02-14T08:46:35;16.70;;;6.50;;
75930;SDS011;64609;47.052;15.462;2024-02-14T08:49:01;18.42;;;6.60;;
75930;SDS011;64609;47.052;15.462;2024-02-14T08:51:36;19.52;;;6.43;;
75930;SDS011;64609;47.052;15.462;2024-02-14T08:54:03;22.17;;;7.28;;
75930;SDS011;64609;47.052;15.462;2024-02-14T08:56:33;23.90;;;6.65;;
75930;SDS011;64609;47.052;15.462;2024-02-14T08:59:00;19.67;;;6.13;;
75930;SDS011;64609;47.052;15.462;2024-02-14T09:01:27;21.73;;;6.47;;
75930;SDS011;64609;47.052;15.462;2024-02-14T09:03:53;15.23;;;5.57;;
75930;SDS011;64609;47.052;15.462;2024-02-14T09:06:19;16.25;;;6.40;;
75930;SDS011;64609;47.052;15.462;2024-02-14T09:08:44;11.52;;;5.78;;
75930;SDS011;64609;47.052;15.462;2024-02-14T09:11:10;16.80;;;5.45;;
75930;SDS011;64609;47.052;15.462;2024-02-14T09:13:37;18.05;;;6.05;;
75930;SDS011;64609;47.052;15.462;2024-02-14T09:16:05;26.90;;;6.82;;
75930;SDS011;64609;47.052;15.462;2024-02-14T09:18:31;14.52;;;6.22;;
75930;SDS011;64609;47.052;15.462;2024-02-14T09:20:57;17.13;;;6.15;;
75930;SDS011;64609;47.052;15.462;2024-02-14T09:23:23;16.85;;;6.25;;
75930;SDS011;64609;47.052;15.462;2024-02-14T09:25:49;13.40;;;5.78;;
75930;SDS011;64609;47.052;15.462;2024-02-14T09:28:18;14.23;;;5.95;;
75930;SDS011;64609;47.052;15.462;2024-02-14T09:30:44;19.88;;;6.25;;
75930;SDS011;64609;47.052;15.462;2024-02-14T09:33:10;18.52;;;6.63;;
75930;SDS011;64609;47.052;15.462;2024-02-14T09:35:36;15.85;;;6.47;;
75930;SDS011;64609;47.052;15.462;2024-02-14T09:38:03;14.88;;;6.40;;
75930;SDS011;64609;47.052;15.462;2024-02-14T09:40:29;22.27;;;6.18;;
75930;SDS011;64609;47.052;15.462;2024-02-14T09:42:55;17.05;;;5.47;;
75930;SDS011;64609;47.052;15.462;2024-02-14T09:45:25;20.70;;;5.28;;
75930;SDS011;64609;47.052;15.462;2024-02-14T09:47:52;25.08;;;6.22;;
75930;SDS011;64609;47.052;15.462;2024-02-14T09:50:21;15.35;;;6.05;;
75930;SDS011;64609;47.052;15.462;2024-02-14T09:52:49;20.55;;;5.45;;
75930;SDS011;64609;47.052;15.462;2024-02-14T09:55:15;15.40;;;4.57;;
75930;SDS011;64609;47.052;15.462;2024-02-14T09:57:42;14.80;;;4.97;;
75930;SDS011;64609;47.052;15.462;2024-02-14T10:00:11;17.90;;;5.40;;
75930;SDS011;64609;47.052;15.462;2024-02-14T10:02:39;13.13;;;5.22;;
75930;SDS011;64609;47.052;15.462;2024-02-14T10:05:06;14.43;;;4.68;;
75930;SDS011;64609;47.052;15.462;2024-02-14T10:07:39;28.35;;;4.80;;
75930;SDS011;64609;47.052;15.462;2024-02-14T10:10:09;13.50;;;4.55;;
75930;SDS011;64609;47.052;15.462;2024-02-14T10:12:36;11.30;;;4.28;;
75930;SDS011;64609;47.052;15.462;2024-02-14T10:15:02;11.48;;;4.18;;
75930;SDS011;64609;47.052;15.462;2024-02-14T10:17:29;12.77;;;4.30;;
75930;SDS011;64609;47.052;15.462;2024-02-14T10:19:58;9.25;;;4.55;;
75930;SDS011;64609;47.052;15.462;2024-02-14T10:22:36;13.82;;;4.30;;
75930;SDS011;64609;47.052;15.462;2024-02-14T10:25:03;18.60;;;4.63;;
75930;SDS011;64609;47.052;15.462;2024-02-14T10:27:32;12.50;;;4.22;;
75930;SDS011;64609;47.052;15.462;2024-02-14T10:29:57;15.52;;;4.22;;
75930;SDS011;64609;47.052;15.462;2024-02-14T10:32:24;11.85;;;4.00;;
75930;SDS011;64609;47.052;15.462;2024-02-14T10:34:50;10.00;;;4.05;;
75930;SDS011;64609;47.052;15.462;2024-02-14T10:37:16;10.27;;;4.18;;
75930;SDS011;64609;47.052;15.462;2024-02-14T10:39:43;8.80;;;4.15;;
75930;SDS011;64609;47.052;15.462;2024-02-14T10:42:12;14.52;;;4.20;;
75930;SDS011;64609;47.052;15.462;2024-02-14T10:44:38;9.52;;;3.75;;
75930;SDS011;64609;47.052;15.462;2024-02-14T10:47:05;9.55;;;3.80;;
75930;SDS011;64609;47.052;15.462;2024-02-14T10:49:35;10.57;;;3.47;;
75930;SDS011;64609;47.052;15.462;2024-02-14T10:52:04;8.32;;;3.20;;
75930;SDS011;64609;47.052;15.462;2024-02-14T10:54:32;7.90;;;3.10;;
75930;SDS011;64609;47.052;15.462;2024-02-14T10:57:00;9.98;;;3.22;;
75930;SDS011;64609;47.052;15.462;2024-02-14T10:59:38;9.43;;;3.00;;
75930;SDS011;64609;47.052;15.462;2024-02-14T11:02:09;9.80;;;3.22;;
75930;SDS011;64609;47.052;15.462;2024-02-14T11:04:36;7.18;;;2.72;;
75930;SDS011;64609;47.052;15.462;2024-02-14T11:07:02;6.63;;;2.20;;
75930;SDS011;64609;47.052;15.462;2024-02-14T11:09:32;9.02;;;2.80;;
75930;SDS011;64609;47.052;15.462;2024-02-14T11:12:01;6.15;;;2.72;;
75930;SDS011;64609;47.052;15.462;2024-02-14T11:14:34;11.52;;;2.85;;
75930;SDS011;64609;47.052;15.462;2024-02-14T11:17:10;10.93;;;2.40;;
75930;SDS011;64609;47.052;15.462;2024-02-14T11:19:38;7.05;;;2.10;;
75930;SDS011;64609;47.052;15.462;2024-02-14T11:22:12;4.13;;;1.50;;
75930;SDS011;64609;47.052;15.462;2024-02-14T11:24:42;9.07;;;2.50;;
75930;SDS011;64609;47.052;15.462;2024-02-14T11:27:11;7.40;;;2.28;;
75930;SDS011;64609;47.052;15.462;2024-02-14T11:29:40;5.43;;;2.03;;
75930;SDS011;64609;47.052;15.462;2024-02-14T11:32:15;5.03;;;2.40;;
75930;SDS011;64609;47.052;15.462;2024-02-14T11:34:43;3.30;;;1.90;;
75930;SDS011;64609;47.052;15.462;2024-02-14T11:37:19;7.90;;;2.40;;
75930;SDS011;64609;47.052;15.462;2024-02-14T11:39:46;6.82;;;2.15;;
75930;SDS011;64609;47.052;15.462;2024-02-14T11:42:11;4.18;;;1.90;;
75930;SDS011;64609;47.052;15.462;2024-02-14T11:44:39;6.35;;;2.05;;
75930;SDS011;64609;47.052;15.462;2024-02-14T11:47:07;5.40;;;2.05;;
75930;SDS011;64609;47.052;15.462;2024-02-14T11:49:35;5.80;;;2.33;;
75930;SDS011;64609;47.052;15.462;2024-02-14T11:52:01;8.60;;;2.53;;
75930;SDS011;64609;47.052;15.462;2024-02-14T11:54:29;4.43;;;2.30;;
75930;SDS011;64609;47.052;15.462;2024-02-14T11:56:55;3.92;;;2.33;;
75930;SDS011;64609;47.052;15.462;2024-02-14T11:59:20;5.88;;;2.58;;
75930;SDS011;64609;47.052;15.462;2024-02-14T12:01:48;4.65;;;2.40;;
75930;SDS011;64609;47.052;15.462;2024-02-14T12:04:16;4.72;;;2.30;;
75930;SDS011;64609;47.052;15.462;2024-02-14T12:06:43;6.72;;;2.10;;
75930;SDS011;64609;47.052;15.462;2024-02-14T12:09:09;4.55;;;2.15;;
75930;SDS011;64609;47.052;15.462;2024-02-14T12:11:39;5.93;;;2.15;;
75930;SDS011;64609;47.052;15.462;2024-02-14T12:14:08;4.13;;;2.47;;
75930;SDS011;64609;47.052;15.462;2024-02-14T12:16:37;6.28;;;2.60;;
75930;SDS011;64609;47.052;15.462;2024-02-14T12:19:14;4.05;;;2.35;;
75930;SDS011;64609;47.052;15.462;2024-02-14T12:21:41;4.80;;;2.53;;
75930;SDS011;64609;47.052;15.462;2024-02-14T12:24:10;6.27;;;2.63;;
75930;SDS011;64609;47.052;15.462;2024-02-14T12:26:40;7.07;;;2.35;;
75930;SDS011;64609;47.052;15.462;2024-02-14T12:29:07;4.97;;;1.83;;
75930;SDS011;64609;47.052;15.462;2024-02-14T12:31:33;4.88;;;2.10;;
75930;SDS011;64609;47.052;15.462;2024-02-14T12:34:00;6.47;;;2.25;;
75930;SDS011;64609;47.052;15.462;2024-02-14T12:36:36;3.65;;;2.00;;
75930;SDS011;64609;47.052;15.462;2024-02-14T12:39:03;5.65;;;2.08;;
75930;SDS011;64609;47.052;15.462;2024-02-14T12:41:29;6.05;;;2.08;;
75930;SDS011;64609;47.052;15.462;2024-02-14T12:43:56;3.15;;;1.70;;
75930;SDS011;64609;47.052;15.462;2024-02-14T12:46:24;3.13;;;1.80;;
75930;SDS011;64609;47.052;15.462;2024-02-14T12:48:49;7.85;;;2.20;;
75930;SDS011;64609;47.052;15.462;2024-02-14T12:51:15;7.32;;;2.30;;
75930;SDS011;64609;47.052;15.462;2024-02-14T12:53:41;3.88;;;1.85;;
75930;SDS011;64609;47.052;15.462;2024-02-14T12:56:07;3.38;;;1.90;;
75930;SDS011;64609;47.052;15.462;2024-02-14T12:58:33;3.88;;;2.08;;
75930;SDS011;64609;47.052;15.462;2024-02-14T13:00:59;3.95;;;1.70;;
75930;SDS011;64609;47.052;15.462;2024-02-14T13:03:26;3.20;;;1.50;;
75930;SDS011;64609;47.052;15.462;2024-02-14T13:05:53;3.88;;;1.60;;
75930;SDS011;64609;47.052;15.462;2024-02-14T13:08:19;3.13;;;1.40;;
75930;SDS011;64609;47.052;15.462;2024-02-14T13:10:45;3.78;;;1.48;;
75930;SDS011;64609;47.052;15.462;2024-02-14T13:13:11;3.25;;;1.33;;
75930;SDS011;64609;47.052;15.462;2024-02-14T13:15:39;5.45;;;1.70;;
75930;SDS011;64609;47.052;15.462;2024-02-14T13:18:05;4.43;;;1.33;;
75930;SDS011;64609;47.052;15.462;2024-02-14T13:20:31;3.65;;;1.35;;
75930;SDS011;64609;47.052;15.462;2024-02-14T13:22:57;3.42;;;1.10;;
75930;SDS011;64609;47.052;15.462;2024-02-14T13:25:23;2.83;;;1.30;;
75930;SDS011;64609;47.052;15.462;2024-02-14T13:27:49;3.88;;;1.30;;
75930;SDS011;64609;47.052;15.462;2024-02-14T13:30:14;4.65;;;1.23;;
75930;SDS011;64609;47.052;15.462;2024-02-14T13:32:40;4.80;;;1.30;;
75930;SDS011;64609;47.052;15.462;2024-02-14T13:35:07;4.28;;;1.48;;
75930;SDS011;64609;47.052;15.462;2024-02-14T13:37:33;3.97;;;1.38;;
75930;SDS011;64609;47.052;15.462;2024-02-14T13:39:58;2.75;;;1.40;;
75930;SDS011;64609;47.052;15.462;2024-02-14T13:42:24;5.22;;;1.42;;
75930;SDS011;64609;47.052;15.462;2024-02-14T13:44:50;6.00;;;1.58;;
75930;SDS011;64609;47.052;15.462;2024-02-14T13:47:18;2.45;;;1.92;;
75930;SDS011;64609;47.052;15.462;2024-02-14T13:49:44;7.18;;;1.70;;
75930;SDS011;64609;47.052;15.462;2024-02-14T13:52:09;5.78;;;1.63;;
75930;SDS011;64609;47.052;15.462;2024-02-14T13:54:35;5.32;;;1.55;;
75930;SDS011;64609;47.052;15.462;2024-02-14T13:57:01;6.05;;;1.52;;
75930;SDS011;64609;47.052;15.462;2024-02-14T13:59:27;3.22;;;1.73;;
75930;SDS011;64609;47.052;15.462;2024-02-14T14:01:54;8.90;;;1.60;;
75930;SDS011;64609;47.052;15.462;2024-02-14T14:04:20;3.35;;;1.55;;
75930;SDS011;64609;47.052;15.462;2024-02-14T14:06:46;3.75;;;1.50;;
75930;SDS011;64609;47.052;15.462;2024-02-14T14:09:12;7.85;;;2.00;;
75930;SDS011;64609;47.052;15.462;2024-02-14T14:11:38;6.53;;;1.73;;
75930;SDS011;64609;47.052;15.462;2024-02-14T14:14:04;6.78;;;1.70;;
75930;SDS011;64609;47.052;15.462;2024-02-14T14:16:30;4.05;;;1.70;;
75930;SDS011;64609;47.052;15.462;2024-02-14T14:18:58;5.18;;;1.25;;
75930;SDS011;64609;47.052;15.462;2024-02-14T14:21:23;4.38;;;1.48;;
75930;SDS011;64609;47.052;15.462;2024-02-14T14:23:49;2.97;;;1.38;;